Time;durP1;ratioP1;P1;durP2;ratioP2;P2;SDS_P1;SDS_P2;PMS_P1;PMS_P2;Temp;Humidity;BMP_temperature;BMP_pressure;BME280_temperature;BME280_humidity;BME280_pressure;Samples;Min_cycle;Max_cycle;Signal;HPM_P1;HPM_P2
2022/09/24 00:01:31;;;;;;;10.43;6.88;;;;;;;;;;5018725;28;20029;-76
2022/09/24 00:04:02;;;;;;;8.80;6.40;;;;;;;;;;5025383;28;20029;-75
2022/09/24 00:06:29;;;;;;;9.73;6.63;;;;;;;;;;5004258;28;20054;-75
2022/09/24 00:08:55;;;;;;;10.30;6.63;;;;;;;;;;4994709;28;20030;-74
2022/09/24 00:11:22;;;;;;;12.77;6.55;;;;;;;;;;5016643;28;20026;-74
2022/09/24 00:13:49;;;;;;;8.30;6.25;;;;;;;;;;5016265;28;20376;-74
2022/09/24 00:16:16;;;;;;;10.68;6.60;;;;;;;;;;5006943;28;20065;-74
2022/09/24 00:18:42;;;;;;;8.02;6.40;;;;;;;;;;4993123;28;20053;-74
2022/09/24 00:21:27;;;;;;;11.57;6.60;;;;;;;;;;5016497;28;20029;-75
2022/09/24 00:23:56;;;;;;;8.38;6.15;;;;;;;;;;4999994;28;20092;-74
2022/09/24 00:29:08;;;;;;;12.63;6.60;;;;;;;;;;5001043;28;20033;-74
2022/09/24 00:31:34;;;;;;;8.65;6.00;;;;;;;;;;5022552;28;20475;-73
2022/09/24 00:34:00;;;;;;;12.10;6.72;;;;;;;;;;5017507;28;20035;-74
2022/09/24 00:36:26;;;;;;;7.60;6.30;;;;;;;;;;5002413;28;20033;-74
2022/09/24 00:38:54;;;;;;;11.20;6.20;;;;;;;;;;5005011;28;20438;-74
2022/09/24 00:41:21;;;;;;;9.57;5.68;;;;;;;;;;5022526;28;20113;-74
2022/09/24 00:43:48;;;;;;;10.70;6.30;;;;;;;;;;5017321;28;20029;-74
2022/09/24 00:46:20;;;;;;;10.05;6.13;;;;;;;;;;5016526;28;20109;-75
2022/09/24 00:48:47;;;;;;;8.15;5.88;;;;;;;;;;4993986;28;20077;-74
2022/09/24 00:51:15;;;;;;;8.80;6.07;;;;;;;;;;5015925;28;20502;-75
2022/09/24 00:53:42;;;;;;;8.98;6.07;;;;;;;;;;5014969;28;20357;-74
2022/09/24 00:56:10;;;;;;;9.70;6.28;;;;;;;;;;5008265;28;20021;-75
2022/09/24 00:58:37;;;;;;;9.77;6.35;;;;;;;;;;4996345;28;20492;-74
2022/09/24 01:01:06;;;;;;;11.23;5.65;;;;;;;;;;5022053;28;20021;-74
2022/09/24 01:03:34;;;;;;;10.40;6.72;;;;;;;;;;5012676;28;20480;-74
2022/09/24 01:06:00;;;;;;;10.82;6.22;;;;;;;;;;5010006;28;20462;-76
2022/09/24 01:08:26;;;;;;;8.00;5.80;;;;;;;;;;4993676;28;20023;-74
2022/09/24 01:11:01;;;;;;;8.23;5.63;;;;;;;;;;5015509;28;20511;-75
2022/09/24 01:13:33;;;;;;;10.25;6.35;;;;;;;;;;5011223;28;20029;-75
2022/09/24 01:16:06;;;;;;;10.20;6.00;;;;;;;;;;5010171;28;20025;-75
2022/09/24 01:18:32;;;;;;;7.07;5.30;;;;;;;;;;4992064;28;20038;-75
2022/09/24 01:21:09;;;;;;;9.25;6.00;;;;;;;;;;5016057;28;20061;-75
2022/09/24 01:23:55;;;;;;;7.90;5.88;;;;;;;;;;5012943;28;20023;-76
2022/09/24 01:26:34;;;;;;;8.63;6.10;;;;;;;;;;5004322;28;20030;-76
2022/09/24 01:29:05;;;;;;;8.73;6.25;;;;;;;;;;5004799;28;20365;-74
2022/09/24 01:31:30;;;;;;;9.52;6.38;;;;;;;;;;5021302;28;20014;-75
2022/09/24 01:33:58;;;;;;;8.05;5.55;;;;;;;;;;5016913;28;20513;-75
2022/09/24 01:36:26;;;;;;;8.60;6.25;;;;;;;;;;5002696;28;20163;-75
2022/09/24 01:38:53;;;;;;;11.02;6.38;;;;;;;;;;4993256;28;20584;-75
2022/09/24 01:41:20;;;;;;;7.43;5.30;;;;;;;;;;5015063;28;20452;-75
2022/09/24 01:43:47;;;;;;;8.82;6.10;;;;;;;;;;5014006;28;20581;-74
2022/09/24 01:46:15;;;;;;;11.57;6.97;;;;;;;;;;5006389;28;20105;-75
2022/09/24 01:48:41;;;;;;;10.38;5.95;;;;;;;;;;4992893;28;20058;-74
2022/09/24 01:51:21;;;;;;;8.13;6.03;;;;;;;;;;5015223;28;20032;-75
2022/09/24 01:53:49;;;;;;;9.07;5.40;;;;;;;;;;5015622;28;20654;-74
2022/09/24 01:56:17;;;;;;;9.75;6.35;;;;;;;;;;5005509;28;20034;-75
2022/09/24 01:58:54;;;;;;;8.82;5.68;;;;;;;;;;4996615;28;20061;-75
2022/09/24 02:01:29;;;;;;;9.38;6.38;;;;;;;;;;5019103;28;20137;-74
2022/09/24 02:03:57;;;;;;;7.47;5.63;;;;;;;;;;4999700;28;20026;-75
2022/09/24 02:06:35;;;;;;;7.90;5.65;;;;;;;;;;5001953;28;20018;-76
2022/09/24 02:09:01;;;;;;;8.48;5.50;;;;;;;;;;4992983;28;20046;-76
2022/09/24 02:11:27;;;;;;;10.15;5.63;;;;;;;;;;5014129;28;20476;-75
2022/09/24 02:13:53;;;;;;;8.63;6.10;;;;;;;;;;5016576;28;20021;-74
2022/09/24 02:16:21;;;;;;;9.80;5.80;;;;;;;;;;5004521;28;20022;-74
2022/09/24 02:18:49;;;;;;;9.20;6.20;;;;;;;;;;4992922;28;20014;-75
2022/09/24 02:21:17;;;;;;;8.40;5.43;;;;;;;;;;5015247;28;20048;-75
2022/09/24 02:24:04;;;;;;;7.78;5.35;;;;;;;;;;5014980;28;20022;-76
2022/09/24 02:26:30;;;;;;;7.68;5.90;;;;;;;;;;5001458;28;20081;-74
2022/09/24 02:28:58;;;;;;;10.73;5.82;;;;;;;;;;4998240;28;20025;-75
2022/09/24 02:31:26;;;;;;;6.80;5.32;;;;;;;;;;5019836;28;20456;-74
2022/09/24 02:36:40;;;;;;;10.30;6.60;;;;;;;;;;4990757;28;20157;-76
2022/09/24 02:39:06;;;;;;;9.30;5.88;;;;;;;;;;4990254;28;20094;-75
2022/09/24 02:41:33;;;;;;;8.05;5.60;;;;;;;;;;4989531;28;20112;-74
2022/09/24 02:43:59;;;;;;;10.40;6.55;;;;;;;;;;4990776;28;20030;-75
2022/09/24 02:46:25;;;;;;;8.60;6.10;;;;;;;;;;4990698;28;20388;-75
2022/09/24 02:48:51;;;;;;;9.65;6.40;;;;;;;;;;4993537;28;20077;-75
2022/09/24 02:51:17;;;;;;;8.55;6.05;;;;;;;;;;4994087;28;20019;-74
2022/09/24 02:53:43;;;;;;;8.13;6.15;;;;;;;;;;4994727;28;20018;-75
2022/09/24 02:56:10;;;;;;;8.80;6.25;;;;;;;;;;4994780;28;20022;-75
2022/09/24 02:58:36;;;;;;;10.55;6.95;;;;;;;;;;4993636;28;20023;-75
2022/09/24 03:01:03;;;;;;;8.60;6.45;;;;;;;;;;4995091;28;20019;-74
2022/09/24 03:03:29;;;;;;;11.38;6.53;;;;;;;;;;4993886;28;20026;-74
2022/09/24 03:05:55;;;;;;;8.27;6.25;;;;;;;;;;4984483;28;20030;-74
2022/09/24 03:08:23;;;;;;;9.80;6.20;;;;;;;;;;4993354;28;20026;-75
2022/09/24 03:10:49;;;;;;;10.45;6.32;;;;;;;;;;4994418;28;20045;-74
2022/09/24 03:13:16;;;;;;;8.18;6.47;;;;;;;;;;4993220;28;20027;-74
2022/09/24 03:15:42;;;;;;;7.65;5.55;;;;;;;;;;4993978;28;20362;-74
2022/09/24 03:18:08;;;;;;;9.57;6.68;;;;;;;;;;4974964;28;20025;-74
2022/09/24 03:20:34;;;;;;;8.63;5.80;;;;;;;;;;4984998;28;20400;-74
2022/09/24 03:23:00;;;;;;;8.73;5.80;;;;;;;;;;4993386;28;20026;-74
2022/09/24 03:25:26;;;;;;;9.43;6.25;;;;;;;;;;4992419;28;20033;-74
2022/09/24 03:27:52;;;;;;;7.03;5.82;;;;;;;;;;4979253;28;20049;-73
2022/09/24 03:33:03;;;;;;;9.90;5.68;;;;;;;;;;4993080;28;20082;-74
2022/09/24 03:35:28;;;;;;;9.98;6.53;;;;;;;;;;4993287;28;20062;-74
2022/09/24 03:37:55;;;;;;;8.55;6.00;;;;;;;;;;4992569;28;20804;-75
2022/09/24 03:40:21;;;;;;;9.95;6.43;;;;;;;;;;4993769;28;20030;-74
2022/09/24 03:42:47;;;;;;;11.73;6.07;;;;;;;;;;4987794;28;20033;-74
2022/09/24 03:45:13;;;;;;;8.88;5.85;;;;;;;;;;4992953;28;20026;-75
2022/09/24 03:47:40;;;;;;;8.13;5.78;;;;;;;;;;4992225;28;20393;-74
2022/09/24 03:50:10;;;;;;;8.10;6.30;;;;;;;;;;4993152;28;20023;-74
2022/09/24 03:52:36;;;;;;;7.47;5.78;;;;;;;;;;4992653;28;20030;-73
2022/09/24 03:55:02;;;;;;;9.95;6.35;;;;;;;;;;4992994;28;20491;-74
2022/09/24 03:57:28;;;;;;;9.57;7.22;;;;;;;;;;4990809;28;20022;-74
2022/09/24 03:59:54;;;;;;;9.18;5.93;;;;;;;;;;4984537;28;20476;-74
2022/09/24 04:02:20;;;;;;;8.18;6.00;;;;;;;;;;4993101;28;20023;-74
2022/09/24 04:04:46;;;;;;;9.20;6.03;;;;;;;;;;4992603;28;20026;-74
2022/09/24 04:07:12;;;;;;;8.95;6.15;;;;;;;;;;4991902;28;20026;-74
2022/09/24 04:09:38;;;;;;;7.97;6.05;;;;;;;;;;4992536;28;20493;-74
2022/09/24 04:12:05;;;;;;;8.73;6.25;;;;;;;;;;4987408;28;20031;-74
2022/09/24 04:14:31;;;;;;;10.13;6.68;;;;;;;;;;4992378;28;20030;-74
2022/09/24 04:16:57;;;;;;;8.32;6.50;;;;;;;;;;4992731;28;20031;-73
2022/09/24 04:19:25;;;;;;;11.23;7.18;;;;;;;;;;4990417;28;20030;-73
2022/09/24 04:21:51;;;;;;;10.30;6.40;;;;;;;;;;4980576;28;20022;-74
2022/09/24 04:24:18;;;;;;;8.38;6.70;;;;;;;;;;4992221;28;20030;-74
2022/09/24 04:26:44;;;;;;;9.15;7.03;;;;;;;;;;4992622;28;20026;-74
2022/09/24 04:29:09;;;;;;;11.35;7.25;;;;;;;;;;4989944;28;20033;-73
2022/09/24 04:31:35;;;;;;;10.02;7.13;;;;;;;;;;4992258;28;20105;-74
2022/09/24 04:34:01;;;;;;;8.75;6.40;;;;;;;;;;4992340;28;20034;-75
2022/09/24 04:36:27;;;;;;;9.48;6.70;;;;;;;;;;4992130;28;20427;-75
2022/09/24 04:38:53;;;;;;;9.75;6.47;;;;;;;;;;4991554;28;20038;-75
2022/09/24 04:41:20;;;;;;;10.32;7.15;;;;;;;;;;4991768;28;20101;-75
2022/09/24 04:43:46;;;;;;;13.13;6.78;;;;;;;;;;4992465;28;20101;-75
2022/09/24 04:46:12;;;;;;;10.88;7.03;;;;;;;;;;4992147;28;20504;-75
2022/09/24 04:48:39;;;;;;;10.48;6.43;;;;;;;;;;4991890;28;20022;-76
2022/09/24 04:51:09;;;;;;;12.93;7.93;;;;;;;;;;4991751;28;20037;-75
2022/09/24 04:53:36;;;;;;;13.52;7.07;;;;;;;;;;4990438;28;20034;-75
2022/09/24 04:56:10;;;;;;;9.05;6.55;;;;;;;;;;4992119;28;20102;-76
2022/09/24 04:58:36;;;;;;;9.07;6.70;;;;;;;;;;4991403;28;20493;-76
2022/09/24 05:01:02;;;;;;;9.77;6.28;;;;;;;;;;4992150;28;20027;-77
2022/09/24 05:03:28;;;;;;;9.18;6.50;;;;;;;;;;4991501;28;20022;-76
2022/09/24 05:05:55;;;;;;;9.93;6.68;;;;;;;;;;4991798;28;20472;-75
2022/09/24 05:08:21;;;;;;;9.95;6.68;;;;;;;;;;4979099;28;20029;-75
2022/09/24 05:10:47;;;;;;;13.10;6.78;;;;;;;;;;4991015;28;20030;-74
2022/09/24 05:13:13;;;;;;;8.63;5.72;;;;;;;;;;4980727;28;20023;-75
2022/09/24 05:15:39;;;;;;;9.10;6.68;;;;;;;;;;4989979;28;20140;-74
2022/09/24 05:18:05;;;;;;;9.75;6.50;;;;;;;;;;4990543;28;20100;-74
2022/09/24 05:20:32;;;;;;;10.10;5.85;;;;;;;;;;4991730;28;20484;-74
2022/09/24 05:22:58;;;;;;;8.00;6.03;;;;;;;;;;4991648;28;20507;-74
2022/09/24 05:25:24;;;;;;;7.97;5.80;;;;;;;;;;4992855;28;20026;-74
2022/09/24 05:27:51;;;;;;;8.23;5.93;;;;;;;;;;4990383;28;20026;-74
2022/09/24 05:30:18;;;;;;;7.20;5.75;;;;;;;;;;4990186;28;20027;-74
2022/09/24 05:32:44;;;;;;;7.95;5.90;;;;;;;;;;4990912;28;20038;-74
2022/09/24 05:35:11;;;;;;;7.22;4.82;;;;;;;;;;4991097;28;20520;-74
2022/09/24 05:37:37;;;;;;;8.05;5.20;;;;;;;;;;4990635;28;20259;-74
2022/09/24 05:42:49;;;;;;;7.88;5.18;;;;;;;;;;4991444;28;20510;-74
2022/09/24 05:45:18;;;;;;;7.85;5.00;;;;;;;;;;4990890;28;20034;-73
2022/09/24 05:47:45;;;;;;;7.22;5.38;;;;;;;;;;4990408;28;20026;-75
2022/09/24 05:50:11;;;;;;;8.77;5.32;;;;;;;;;;4991420;28;20054;-74
2022/09/24 05:52:38;;;;;;;9.98;5.97;;;;;;;;;;4991157;28;20026;-73
2022/09/24 05:55:04;;;;;;;8.20;5.68;;;;;;;;;;4989661;28;20109;-73
2022/09/24 05:57:30;;;;;;;8.35;5.75;;;;;;;;;;4990436;28;20492;-74
2022/09/24 05:59:56;;;;;;;8.32;6.07;;;;;;;;;;4990592;28;20496;-73
2022/09/24 06:02:22;;;;;;;7.63;5.78;;;;;;;;;;4991158;28;20061;-74
2022/09/24 06:04:48;;;;;;;6.80;5.78;;;;;;;;;;4990742;28;20440;-74
2022/09/24 06:07:14;;;;;;;9.15;6.40;;;;;;;;;;4990628;28;20069;-74
2022/09/24 06:09:40;;;;;;;9.80;5.82;;;;;;;;;;4990766;28;20033;-73
2022/09/24 06:12:09;;;;;;;10.73;5.75;;;;;;;;;;4991361;28;20378;-74
2022/09/24 06:14:35;;;;;;;12.20;6.32;;;;;;;;;;4991216;28;20057;-75
2022/09/24 06:17:01;;;;;;;9.05;6.07;;;;;;;;;;4990691;28;20026;-74
2022/09/24 06:19:27;;;;;;;9.85;5.43;;;;;;;;;;4990527;28;20437;-75
2022/09/24 06:21:53;;;;;;;12.88;6.25;;;;;;;;;;4991824;28;20105;-74
2022/09/24 06:24:19;;;;;;;10.50;6.10;;;;;;;;;;4993198;28;20022;-74
2022/09/24 06:26:45;;;;;;;8.90;5.95;;;;;;;;;;4992760;28;20022;-75
2022/09/24 06:29:12;;;;;;;7.40;5.38;;;;;;;;;;4991742;28;20034;-74
2022/09/24 06:31:38;;;;;;;8.32;5.30;;;;;;;;;;4992518;28;20101;-73
2022/09/24 06:34:04;;;;;;;6.82;5.15;;;;;;;;;;4994266;28;20038;-75
2022/09/24 06:36:30;;;;;;;7.22;5.47;;;;;;;;;;4994347;28;20396;-75
2022/09/24 06:38:57;;;;;;;8.02;4.85;;;;;;;;;;4993678;28;20030;-74
2022/09/24 06:41:23;;;;;;;6.50;5.13;;;;;;;;;;4994260;28;20060;-75
2022/09/24 06:43:49;;;;;;;6.72;5.32;;;;;;;;;;4994363;28;20449;-72
2022/09/24 06:46:16;;;;;;;7.25;5.00;;;;;;;;;;4994186;28;20033;-72
2022/09/24 06:48:42;;;;;;;10.02;5.22;;;;;;;;;;4992616;28;20014;-75
2022/09/24 06:51:08;;;;;;;6.93;4.97;;;;;;;;;;4992901;28;20061;-75
2022/09/24 06:53:35;;;;;;;7.70;5.10;;;;;;;;;;4991897;28;20027;-74
2022/09/24 06:56:02;;;;;;;10.88;5.03;;;;;;;;;;4991921;28;20105;-75
2022/09/24 06:58:28;;;;;;;7.63;5.18;;;;;;;;;;4991793;28;20477;-75
2022/09/24 07:00:57;;;;;;;7.72;5.00;;;;;;;;;;4993950;28;20037;-74
2022/09/24 07:03:24;;;;;;;8.68;4.80;;;;;;;;;;4988957;28;20113;-75
2022/09/24 07:05:50;;;;;;;7.53;4.75;;;;;;;;;;4993699;28;20026;-75
2022/09/24 07:08:16;;;;;;;7.80;4.22;;;;;;;;;;4992732;28;20030;-73
2022/09/24 07:10:47;;;;;;;6.40;4.38;;;;;;;;;;4993583;28;20405;-74
2022/09/24 07:13:13;;;;;;;;;;;;;;;;;;4993913;28;20026;-73
2022/09/24 07:15:40;;;;;;;4.85;3.85;;;;;;;;;;4993530;28;19906;-73
2022/09/24 07:18:06;;;;;;;6.03;4.03;;;;;;;;;;4992654;28;20097;-73
2022/09/24 07:20:33;;;;;;;6.53;4.80;;;;;;;;;;4992354;28;20520;-73
2022/09/24 07:22:59;;;;;;;6.35;4.07;;;;;;;;;;4993457;28;20023;-76
2022/09/24 07:25:25;;;;;;;6.07;4.60;;;;;;;;;;4993516;28;20038;-74
2022/09/24 07:27:51;;;;;;;6.28;4.50;;;;;;;;;;4992453;28;20537;-74
2022/09/24 07:30:17;;;;;;;7.20;4.68;;;;;;;;;;4993358;28;20117;-74
2022/09/24 07:32:43;;;;;;;7.95;5.47;;;;;;;;;;4992264;28;20034;-73
2022/09/24 07:35:09;;;;;;;6.28;4.63;;;;;;;;;;4992923;28;20041;-73
2022/09/24 07:37:35;;;;;;;7.95;5.18;;;;;;;;;;4991781;28;20029;-74
2022/09/24 07:40:01;;;;;;;9.27;4.90;;;;;;;;;;4993249;28;20027;-73
2022/09/24 07:42:27;;;;;;;10.07;5.55;;;;;;;;;;4993078;28;20027;-74
2022/09/24 07:44:55;;;;;;;7.85;5.55;;;;;;;;;;4992882;28;20030;-74
2022/09/24 07:47:21;;;;;;;7.35;5.15;;;;;;;;;;4991294;28;20045;-74
2022/09/24 07:49:47;;;;;;;6.30;4.70;;;;;;;;;;4992968;28;20485;-74
2022/09/24 07:52:13;;;;;;;6.68;5.10;;;;;;;;;;4993263;28;20110;-75
2022/09/24 07:54:40;;;;;;;6.63;4.22;;;;;;;;;;4993022;28;20093;-75
2022/09/24 07:57:11;;;;;;;7.88;4.47;;;;;;;;;;4992404;28;20053;-76
2022/09/24 07:59:37;;;;;;;7.30;4.70;;;;;;;;;;4989916;28;20070;-75
2022/09/24 08:02:06;;;;;;;7.43;4.60;;;;;;;;;;4992483;28;20065;-75
2022/09/24 08:04:32;;;;;;;6.35;4.55;;;;;;;;;;4992443;28;20029;-75
2022/09/24 08:07:00;;;;;;;10.25;4.32;;;;;;;;;;4990794;28;20030;-72
2022/09/24 08:09:25;;;;;;;7.50;4.22;;;;;;;;;;4991806;28;20500;-74
2022/09/24 08:11:52;;;;;;;6.00;4.75;;;;;;;;;;4987391;28;20073;-74
2022/09/24 08:14:18;;;;;;;6.63;4.50;;;;;;;;;;4993070;28;20101;-74
2022/09/24 08:16:44;;;;;;;5.40;4.50;;;;;;;;;;4992676;28;20157;-74
2022/09/24 08:19:12;;;;;;;5.70;4.60;;;;;;;;;;4990469;28;20437;-74
2022/09/24 08:21:39;;;;;;;6.30;4.88;;;;;;;;;;4990142;28;20030;-73
2022/09/24 08:24:05;;;;;;;5.60;4.28;;;;;;;;;;4987163;28;20026;-73
2022/09/24 08:26:31;;;;;;;6.13;4.45;;;;;;;;;;4991431;28;20029;-74
2022/09/24 08:28:57;;;;;;;6.85;4.47;;;;;;;;;;4992365;28;20479;-74
2022/09/24 08:31:23;;;;;;;5.85;4.57;;;;;;;;;;4992190;28;20026;-73
2022/09/24 08:33:49;;;;;;;6.53;5.00;;;;;;;;;;5018173;23;20028;-73
2022/09/24 08:36:17;;;;;;;7.50;4.63;;;;;;;;;;5028195;28;20041;-72
2022/09/24 08:38:43;;;;;;;8.10;4.28;;;;;;;;;;5034930;28;20026;-74
2022/09/24 08:41:12;;;;;;;6.85;4.55;;;;;;;;;;5029728;28;20146;-74
2022/09/24 08:43:41;;;;;;;5.50;4.25;;;;;;;;;;5011435;28;20108;-73
2022/09/24 08:49:02;;;;;;;6.22;4.45;;;;;;;;;;5030477;28;20079;-73
2022/09/24 08:51:32;;;;;;;7.15;4.25;;;;;;;;;;5030546;28;20107;-74
2022/09/24 08:53:58;;;;;;;7.47;4.25;;;;;;;;;;5030905;28;20029;-73
2022/09/24 08:56:29;;;;;;;8.35;4.03;;;;;;;;;;5030726;28;20375;-73
2022/09/24 08:59:00;;;;;;;5.10;3.70;;;;;;;;;;5029960;28;20517;-73
2022/09/24 09:01:43;;;;;;;6.32;4.43;;;;;;;;;;5030822;28;20484;-73
2022/09/24 09:04:21;;;;;;;6.57;4.10;;;;;;;;;;5031267;28;20025;-73
2022/09/24 09:06:57;;;;;;;6.05;4.22;;;;;;;;;;5022387;28;20473;-73
2022/09/24 09:09:25;;;;;;;4.88;4.10;;;;;;;;;;5026402;28;20317;-73
2022/09/24 09:11:52;;;;;;;7.85;4.70;;;;;;;;;;5030633;28;20033;-74
2022/09/24 09:14:46;;;;;;;5.38;3.92;;;;;;;;;;5030235;28;20103;-74
2022/09/24 09:17:22;;;;;;;7.80;4.22;;;;;;;;;;5023645;28;20030;-74
2022/09/24 09:19:53;;;;;;;8.30;3.88;;;;;;;;;;5029923;28;20021;-74
2022/09/24 09:22:22;;;;;;;5.32;4.28;;;;;;;;;;5019124;28;20033;-74
2022/09/24 09:24:49;;;;;;;7.45;4.20;;;;;;;;;;5030479;28;20022;-74
2022/09/24 09:27:16;;;;;;;4.80;3.92;;;;;;;;;;5012044;28;20053;-74
2022/09/24 09:29:45;;;;;;;4.13;3.45;;;;;;;;;;5012876;28;20607;-73
2022/09/24 09:32:17;;;;;;;4.82;3.60;;;;;;;;;;5030405;28;20025;-73
2022/09/24 09:35:02;;;;;;;5.82;4.60;;;;;;;;;;5030258;28;20380;-74
2022/09/24 09:37:34;;;;;;;5.28;4.40;;;;;;;;;;5029662;28;20025;-73
2022/09/24 09:40:10;;;;;;;6.10;4.32;;;;;;;;;;5030594;28;20101;-73
2022/09/24 09:42:39;;;;;;;5.22;3.90;;;;;;;;;;5028937;28;20036;-73
2022/09/24 09:45:24;;;;;;;7.22;4.32;;;;;;;;;;5030486;28;20025;-73
2022/09/24 09:47:52;;;;;;;5.85;3.85;;;;;;;;;;5029872;28;20017;-73
2022/09/24 09:50:19;;;;;;;7.35;4.80;;;;;;;;;;5030014;28;20087;-74
2022/09/24 09:52:46;;;;;;;6.40;4.22;;;;;;;;;;5030019;28;20497;-73
2022/09/24 09:55:22;;;;;;;7.10;4.60;;;;;;;;;;5030012;28;20105;-73
2022/09/24 09:57:48;;;;;;;6.00;4.78;;;;;;;;;;5034951;28;20021;-73
2022/09/24 10:00:32;;;;;;;6.53;4.47;;;;;;;;;;5038407;28;20037;-73
2022/09/24 10:02:58;;;;;;;7.60;4.22;;;;;;;;;;5034296;28;20148;-73
2022/09/24 10:05:27;;;;;;;9.80;4.43;;;;;;;;;;5034349;28;20033;-73
2022/09/24 10:07:56;;;;;;;6.35;4.38;;;;;;;;;;5031166;28;20103;-72
2022/09/24 10:10:23;;;;;;;9.90;4.70;;;;;;;;;;5035908;28;20045;-73
2022/09/24 10:13:08;;;;;;;5.63;4.32;;;;;;;;;;5036720;28;20029;-72
2022/09/24 10:15:34;;;;;;;5.28;4.30;;;;;;;;;;5035490;28;20024;-74
2022/09/24 10:18:00;;;;;;;7.03;4.72;;;;;;;;;;5034486;28;20027;-74
2022/09/24 10:20:30;;;;;;;5.47;4.10;;;;;;;;;;5016943;28;20328;-73
2022/09/24 10:22:58;;;;;;;8.70;4.18;;;;;;;;;;5034264;28;20025;-74
2022/09/24 10:25:26;;;;;;;6.00;3.70;;;;;;;;;;5033890;28;20033;-71
2022/09/24 10:30:56;;;;;;;6.57;4.22;;;;;;;;;;5026620;28;20044;-73
2022/09/24 10:33:22;;;;;;;5.10;3.90;;;;;;;;;;5031439;28;20033;-73
2022/09/24 10:35:48;;;;;;;5.38;4.25;;;;;;;;;;5033357;28;20317;-73
2022/09/24 10:38:24;;;;;;;5.32;3.97;;;;;;;;;;5032809;28;20017;-78
2022/09/24 10:40:50;;;;;;;7.13;3.95;;;;;;;;;;5034539;28;20029;-75
2022/09/24 10:43:20;;;;;;;6.45;4.25;;;;;;;;;;5033785;28;20028;-76
2022/09/24 10:45:50;;;;;;;5.63;4.32;;;;;;;;;;5033500;28;20025;-77
2022/09/24 10:48:52;;;;;;;11.37;7.40;;;;;;;;;;5028941;28;20364;-76
2022/09/24 10:51:17;;;;;;;7.40;4.38;;;;;;;;;;4952711;28;20102;-75
2022/09/24 10:54:09;;;;;;;6.70;3.28;;;;;;;;;;5016850;28;20429;-75
2022/09/24 10:56:37;;;;;;;6.88;4.85;;;;;;;;;;5018071;28;20034;-76
2022/09/24 10:59:04;;;;;;;6.32;4.70;;;;;;;;;;5030527;28;20025;-74
2022/09/24 11:02:02;;;;;;;5.30;2.85;;;;;;;;;;5031135;28;20020;-72
2022/09/24 11:04:41;;;;;;;4.47;3.38;;;;;;;;;;4970508;28;20037;-72
2022/09/24 11:07:39;;;;;;;5.38;3.60;;;;;;;;;;5029874;28;20021;-72
2022/09/24 11:10:29;;;;;;;4.85;3.47;;;;;;;;;;4958199;28;20096;-73
2022/09/24 11:13:02;;;;;;;6.88;3.40;;;;;;;;;;5004808;28;20766;-73
2022/09/24 11:15:49;;;;;;;4.90;3.67;;;;;;;;;;5033381;28;20032;-72
2022/09/24 11:18:34;;;;;;;6.68;3.90;;;;;;;;;;4996438;28;20029;-72
2022/09/24 11:21:18;;;;;;;3.33;3.03;;;;;;;;;;5032815;28;20022;-71
2022/09/24 11:23:54;;;;;;;5.60;3.67;;;;;;;;;;5014815;28;20112;-72
2022/09/24 11:26:26;;;;;;;5.53;3.38;;;;;;;;;;5032597;28;20483;-73
2022/09/24 11:29:07;;;;;;;6.18;3.42;;;;;;;;;;5031886;28;20021;-72
2022/09/24 11:31:36;;;;;;;10.77;5.72;;;;;;;;;;5032459;28;20101;-76
2022/09/24 11:34:11;;;;;;;4.63;2.85;;;;;;;;;;5014818;28;20088;-75
2022/09/24 11:37:01;;;;;;;6.63;3.17;;;;;;;;;;5029263;28;20025;-76
2022/09/24 11:39:42;;;;;;;4.57;3.30;;;;;;;;;;5021585;28;20113;-76
2022/09/24 11:42:15;;;;;;;4.22;2.80;;;;;;;;;;5032797;28;20373;-74
2022/09/24 11:44:54;;;;;;;3.55;3.13;;;;;;;;;;5014256;28;20026;-74
2022/09/24 11:47:29;;;;;;;4.10;3.38;;;;;;;;;;5031621;28;20044;-75
2022/09/24 11:50:05;;;;;;;6.55;4.82;;;;;;;;;;5014039;28;20025;-76
2022/09/24 11:52:31;;;;;;;3.60;2.95;;;;;;;;;;5031569;28;20021;-75
2022/09/24 11:55:14;;;;;;;5.60;2.97;;;;;;;;;;5031732;28;20538;-75
2022/09/24 11:57:46;;;;;;;3.83;3.08;;;;;;;;;;5013384;28;20434;-76
2022/09/24 12:00:14;;;;;;;4.45;3.25;;;;;;;;;;5031448;28;20033;-76
2022/09/24 12:03:02;;;;;;;4.72;3.35;;;;;;;;;;5031401;28;20037;-75
2022/09/24 12:05:45;;;;;;;5.10;3.25;;;;;;;;;;5032054;28;20465;-77
2022/09/24 12:08:26;;;;;;;3.53;3.20;;;;;;;;;;5031175;28;20064;-73
2022/09/24 12:10:52;;;;;;;4.43;3.13;;;;;;;;;;5014407;28;20021;-72
2022/09/24 12:13:27;;;;;;;6.88;3.00;;;;;;;;;;5031594;28;20489;-73
2022/09/24 12:16:14;;;;;;;4.10;2.88;;;;;;;;;;5025570;28;20376;-73
2022/09/24 12:18:50;;;;;;;4.40;2.70;;;;;;;;;;5020896;28;20025;-73
2022/09/24 12:21:27;;;;;;;7.50;3.00;;;;;;;;;;5030647;28;20029;-72
2022/09/24 12:23:55;;;;;;;4.82;3.38;;;;;;;;;;5021630;28;20067;-73
2022/09/24 12:26:22;;;;;;;4.50;3.22;;;;;;;;;;5031410;28;20025;-73
2022/09/24 12:34:41;;;;;;;11.48;4.03;;;;;;;;;;5031031;28;20467;-73
2022/09/24 12:37:09;;;;;;;5.50;3.40;;;;;;;;;;5025271;28;20557;-71
2022/09/24 12:39:37;;;;;;;7.85;4.82;;;;;;;;;;5031698;28;20399;-74
2022/09/24 12:42:07;;;;;;;5.65;3.50;;;;;;;;;;5031191;28;20503;-73
2022/09/24 12:44:33;;;;;;;5.40;3.28;;;;;;;;;;5030808;28;20113;-73
2022/09/24 12:47:00;;;;;;;6.45;3.30;;;;;;;;;;5012790;28;20068;-71
2022/09/24 12:49:26;;;;;;;3.25;2.95;;;;;;;;;;5030204;28;20030;-73
2022/09/24 12:51:52;;;;;;;5.00;3.20;;;;;;;;;;5031017;28;20026;-72
2022/09/24 12:54:35;;;;;;;3.55;2.65;;;;;;;;;;5030478;28;20037;-74
2022/09/24 12:57:27;;;;;;;3.35;2.80;;;;;;;;;;5030785;28;20499;-73
2022/09/24 13:00:01;;;;;;;2.80;2.50;;;;;;;;;;5025584;28;20034;-73
2022/09/24 13:02:31;;;;;;;5.13;2.85;;;;;;;;;;5031220;28;20029;-73
2022/09/24 13:04:57;;;;;;;4.60;3.00;;;;;;;;;;5030823;28;20034;-73
2022/09/24 13:07:31;;;;;;;5.28;2.67;;;;;;;;;;5030300;28;20388;-73
2022/09/24 13:09:57;;;;;;;5.65;3.17;;;;;;;;;;5030726;28;20029;-74
2022/09/24 13:12:29;;;;;;;4.35;3.10;;;;;;;;;;5030816;28;20108;-73
2022/09/24 13:15:03;;;;;;;2.33;1.92;;;;;;;;;;5030403;28;20083;-74
2022/09/24 13:17:33;;;;;;;4.30;2.28;;;;;;;;;;5029990;28;20080;-73
2022/09/24 13:20:00;;;;;;;3.20;2.50;;;;;;;;;;5031109;28;20026;-73
2022/09/24 13:22:49;;;;;;;6.38;2.97;;;;;;;;;;5031012;28;20029;-72
2022/09/24 13:25:21;;;;;;;3.75;2.47;;;;;;;;;;5025037;28;20034;-73
2022/09/24 13:27:55;;;;;;;4.03;2.50;;;;;;;;;;5029730;28;20599;-73
2022/09/24 13:30:34;;;;;;;6.65;2.60;;;;;;;;;;5030723;28;20025;-73
2022/09/24 13:33:06;;;;;;;3.42;2.47;;;;;;;;;;5012902;28;20013;-73
2022/09/24 13:35:42;;;;;;;3.33;2.58;;;;;;;;;;5025723;28;20034;-73
2022/09/24 13:38:16;;;;;;;2.90;2.40;;;;;;;;;;5029687;28;20113;-72
2022/09/24 13:40:48;;;;;;;2.47;2.28;;;;;;;;;;5031191;28;20391;-71
2022/09/24 13:43:29;;;;;;;2.30;2.10;;;;;;;;;;5030315;28;20029;-72
2022/09/24 13:45:55;;;;;;;4.07;2.55;;;;;;;;;;5024666;28;20410;-73
2022/09/24 13:48:30;;;;;;;4.78;2.55;;;;;;;;;;5030294;28;20021;-73
2022/09/24 13:50:56;;;;;;;3.13;2.38;;;;;;;;;;5012758;28;20037;-72
2022/09/24 13:53:22;;;;;;;5.10;2.58;;;;;;;;;;5030185;28;20029;-72
2022/09/24 13:55:56;;;;;;;4.18;2.53;;;;;;;;;;5030371;28;20472;-73
2022/09/24 13:58:32;;;;;;;2.75;2.40;;;;;;;;;;5017603;28;20104;-72
2022/09/24 14:01:00;;;;;;;4.25;2.42;;;;;;;;;;5029842;28;20079;-72
2022/09/24 14:03:31;;;;;;;3.03;2.50;;;;;;;;;;5030236;28;20025;-72
2022/09/24 14:05:58;;;;;;;3.88;3.20;;;;;;;;;;5012589;28;20049;-73
2022/09/24 14:08:26;;;;;;;5.10;2.90;;;;;;;;;;5011749;28;20026;-73
2022/09/24 14:10:56;;;;;;;3.75;2.75;;;;;;;;;;5030529;28;20022;-73
2022/09/24 14:13:23;;;;;;;4.05;2.47;;;;;;;;;;5026168;28;20053;-73
2022/09/24 14:15:56;;;;;;;4.03;3.05;;;;;;;;;;5030441;28;20030;-73
2022/09/24 14:18:23;;;;;;;3.38;2.80;;;;;;;;;;5018195;28;20066;-73
2022/09/24 14:21:09;;;;;;;3.00;2.50;;;;;;;;;;5032699;28;20077;-73
2022/09/24 14:23:41;;;;;;;3.67;2.40;;;;;;;;;;5029494;28;20045;-72
2022/09/24 14:26:10;;;;;;;9.18;2.58;;;;;;;;;;5038944;28;20045;-72
2022/09/24 14:28:36;;;;;;;3.70;2.90;;;;;;;;;;5038595;28;20253;-73
2022/09/24 14:31:06;;;;;;;3.40;2.90;;;;;;;;;;5039839;28;20047;-73
2022/09/24 14:33:33;;;;;;;2.38;2.17;;;;;;;;;;5039289;28;20028;-72
2022/09/24 14:36:00;;;;;;;4.20;2.30;;;;;;;;;;5044260;22;20404;-72
2022/09/24 14:38:28;;;;;;;4.70;2.63;;;;;;;;;;5009370;28;20117;-73
2022/09/24 14:41:00;;;;;;;3.85;2.40;;;;;;;;;;5010322;28;20433;-73
2022/09/24 14:43:30;;;;;;;2.83;2.42;;;;;;;;;;4992097;28;20018;-72
2022/09/24 14:46:05;;;;;;;3.15;2.30;;;;;;;;;;5013599;28;20026;-73
2022/09/24 14:48:33;;;;;;;2.10;1.92;;;;;;;;;;5012989;28;20499;-73
2022/09/24 14:50:59;;;;;;;5.18;2.42;;;;;;;;;;5013391;28;20120;-73
2022/09/24 14:53:28;;;;;;;4.10;2.28;;;;;;;;;;5013575;28;20065;-74
2022/09/24 14:55:55;;;;;;;3.58;2.28;;;;;;;;;;5013958;28;20018;-74
2022/09/24 14:58:25;;;;;;;4.90;2.60;;;;;;;;;;4983284;28;20334;-74
2022/09/24 15:00:56;;;;;;;3.30;2.03;;;;;;;;;;5013500;28;20025;-75
2022/09/24 15:03:37;;;;;;;2.88;2.28;;;;;;;;;;5009186;28;20022;-72
2022/09/24 15:06:12;;;;;;;2.90;2.25;;;;;;;;;;4990297;28;20116;-71
2022/09/24 15:08:38;;;;;;;4.93;1.88;;;;;;;;;;5012490;28;20067;-74
2022/09/24 15:11:04;;;;;;;3.70;2.30;;;;;;;;;;5013085;28;20022;-74
2022/09/24 15:13:31;;;;;;;2.85;2.33;;;;;;;;;;5013128;28;20172;-73
2022/09/24 15:16:20;;;;;;;4.43;2.55;;;;;;;;;;4994886;28;20022;-73
2022/09/24 15:18:57;;;;;;;2.20;1.88;;;;;;;;;;4982511;28;20029;-73